createdAt,value
2022-12-19T00:00:36.618Z,50.70
2022-12-19T00:03:04.773Z,46.77
2022-12-19T00:05:32.852Z,55.70
2022-12-19T00:08:04.683Z,53.90
2022-12-19T00:10:43.574Z,50.40
2022-12-19T00:13:11.556Z,48.17
2022-12-19T00:15:39.541Z,53.10
2022-12-19T00:18:07.500Z,52.43
2022-12-19T00:20:35.493Z,53.87
2022-12-19T00:23:04.863Z,58.63
2022-12-19T00:25:32.826Z,55.60
2022-12-19T00:28:01.639Z,52.83
2022-12-19T00:30:29.646Z,52.97
2022-12-19T00:32:58.335Z,51.67
2022-12-19T00:35:26.376Z,53.90
2022-12-19T00:37:54.416Z,52.80
2022-12-19T00:40:23.823Z,55.83
2022-12-19T00:42:54.169Z,53.57
2022-12-19T00:45:23.379Z,51.77
2022-12-19T00:47:51.352Z,53.97
2022-12-19T00:50:19.382Z,53.17
2022-12-19T00:52:47.361Z,59.03
2022-12-19T00:55:18.516Z,50.60
2022-12-19T00:57:49.082Z,54.40
2022-12-19T01:00:18.342Z,55.10
2022-12-19T01:02:46.649Z,52.33
2022-12-19T01:05:14.788Z,56.30
2022-12-19T01:07:42.992Z,53.63
2022-12-19T01:10:11.495Z,57.73
2022-12-19T01:12:47.666Z,56.33
2022-12-19T01:15:20.436Z,62.50
2022-12-19T01:17:48.940Z,55.63
2022-12-19T01:20:29.779Z,53.97
2022-12-19T01:22:59.991Z,60.13
2022-12-19T01:25:28.672Z,52.07
2022-12-19T01:27:57.716Z,58.10
2022-12-19T01:30:27.626Z,60.17
2022-12-19T01:32:58.216Z,60.50
2022-12-19T01:35:28.042Z,56.73
2022-12-19T01:38:03.335Z,56.73
2022-12-19T01:40:37.284Z,56.33
2022-12-19T01:43:05.700Z,57.97
2022-12-19T01:45:43.648Z,57.20
2022-12-19T01:48:18.799Z,53.47
2022-12-19T01:50:58.811Z,55.87
2022-12-19T01:53:49.370Z,55.73
2022-12-19T01:56:19.776Z,51.33
2022-12-19T01:58:49.369Z,57.03
2022-12-19T02:01:19.899Z,55.67
2022-12-19T02:03:49.455Z,60.83
2022-12-19T02:06:17.800Z,56.60
2022-12-19T02:08:49.190Z,55.47
2022-12-19T02:11:17.216Z,61.40
2022-12-19T02:13:46.720Z,56.57
2022-12-19T02:16:30.225Z,61.43
2022-12-19T02:19:13.143Z,54.70
2022-12-19T02:21:56.137Z,56.47
2022-12-19T02:24:56.732Z,56.77
2022-12-19T02:28:03.447Z,59.70
2022-12-19T02:30:48.864Z,55.87
2022-12-19T02:33:22.993Z,54.90
2022-12-19T02:35:54.498Z,59.97
2022-12-19T02:38:30.161Z,61.03
2022-12-19T02:41:03.452Z,52.87
2022-12-19T02:43:34.608Z,57.17
2022-12-19T02:46:07.108Z,50.30
2022-12-19T02:48:35.912Z,55.50
2022-12-19T02:51:05.419Z,54.17
2022-12-19T02:53:34.670Z,54.47
2022-12-19T02:56:23.163Z,50.60
2022-12-19T02:59:03.029Z,55.10
2022-12-19T03:01:43.200Z,52.87
2022-12-19T03:04:19.794Z,50.77
2022-12-19T03:06:54.194Z,56.67
2022-12-19T03:09:31.565Z,50.57
2022-12-19T03:12:06.404Z,50.93
2022-12-19T03:14:36.876Z,48.20
2022-12-19T03:17:08.643Z,52.07
2022-12-19T03:19:39.582Z,47.87
2022-12-19T03:22:08.943Z,51.23
2022-12-19T03:24:37.054Z,53.57
2022-12-19T03:27:09.450Z,47.13
2022-12-19T03:29:40.946Z,48.23
2022-12-19T03:32:14.218Z,48.87
2022-12-19T03:34:46.054Z,47.47
2022-12-19T03:37:17.040Z,50.80
2022-12-19T03:39:49.321Z,47.87
2022-12-19T03:42:37.076Z,52.67
2022-12-19T03:45:07.659Z,47.43
2022-12-19T03:47:41.777Z,51.63
2022-12-19T03:50:10.470Z,46.33
2022-12-19T03:52:46.768Z,48.53
2022-12-19T03:55:20.408Z,50.87
2022-12-19T03:57:54.146Z,47.60
2022-12-19T04:00:24.801Z,46.13
2022-12-19T04:02:56.834Z,43.70
2022-12-19T04:05:27.164Z,53.40
2022-12-19T04:07:58.769Z,49.73
2022-12-19T04:10:29.531Z,47.80
2022-12-19T04:13:01.016Z,46.43
2022-12-19T04:15:35.950Z,46.17
2022-12-19T04:18:07.980Z,49.60
2022-12-19T04:20:39.643Z,51.37
2022-12-19T04:23:12.918Z,51.80
2022-12-19T04:25:44.929Z,51.53
2022-12-19T04:28:18.266Z,45.23
2022-12-19T04:30:48.277Z,47.60
2022-12-19T04:33:17.724Z,48.53
2022-12-19T04:35:47.976Z,48.97
2022-12-19T04:38:16.130Z,58.77
2022-12-19T04:40:44.300Z,56.80
2022-12-19T04:43:12.622Z,58.30
2022-12-19T04:45:42.911Z,55.43
2022-12-19T04:48:11.689Z,53.40
2022-12-19T04:50:41.122Z,52.60
2022-12-19T04:53:09.183Z,51.23
2022-12-19T04:55:37.301Z,52.97
2022-12-19T04:58:06.514Z,51.07
2022-12-19T05:00:35.247Z,52.63
2022-12-19T05:03:03.384Z,48.10
2022-12-19T05:05:31.526Z,49.17
2022-12-19T05:08:01.281Z,45.73
2022-12-19T05:10:29.347Z,47.03
2022-12-19T05:12:57.394Z,45.27
2022-12-19T05:15:25.389Z,42.63
2022-12-19T05:17:53.383Z,50.93
2022-12-19T05:20:21.491Z,45.37
2022-12-19T05:22:49.594Z,42.93
2022-12-19T05:25:18.992Z,47.13
2022-12-19T05:27:46.997Z,45.50
2022-12-19T05:30:15.245Z,49.23
2022-12-19T05:32:43.250Z,49.77
2022-12-19T05:35:11.346Z,50.90
2022-12-19T05:37:39.374Z,53.70
2022-12-19T05:40:08.784Z,45.97
2022-12-19T05:42:38.265Z,51.83
2022-12-19T05:45:08.768Z,47.70
2022-12-19T05:47:38.012Z,47.87
2022-12-19T05:50:07.169Z,47.60
2022-12-19T05:52:35.199Z,48.80
2022-12-19T05:55:03.440Z,53.30
2022-12-19T05:57:31.429Z,56.77
2022-12-19T06:00:00.843Z,55.00
2022-12-19T06:02:32.985Z,60.77
2022-12-19T06:05:01.143Z,61.60
2022-12-19T06:07:29.927Z,56.67
2022-12-19T06:09:57.945Z,52.80
2022-12-19T06:12:25.965Z,58.87
2022-12-19T06:14:54.686Z,55.87
2022-12-19T06:17:24.086Z,58.90
2022-12-19T06:19:52.086Z,58.37
2022-12-19T06:22:20.266Z,58.63
2022-12-19T06:24:48.266Z,56.17
2022-12-19T06:27:16.284Z,58.03
2022-12-19T06:29:44.353Z,59.07
2022-12-19T06:32:12.409Z,52.00
2022-12-19T06:37:29.816Z,55.67
2022-12-19T06:39:57.822Z,49.93
2022-12-19T06:42:25.056Z,51.73
2022-12-19T06:44:55.766Z,49.63
2022-12-19T06:47:25.116Z,51.63
2022-12-19T06:49:54.785Z,50.00
2022-12-19T06:52:22.881Z,44.63
2022-12-19T06:54:50.890Z,43.97
2022-12-19T06:57:18.897Z,45.53
2022-12-19T06:59:46.902Z,51.40
2022-12-19T07:02:25.804Z,53.27
2022-12-19T07:05:02.206Z,51.30
2022-12-19T07:07:30.498Z,47.13
2022-12-19T07:09:58.749Z,54.70
2022-12-19T07:12:27.930Z,51.73
2022-12-19T07:14:55.929Z,56.37
2022-12-19T07:17:27.745Z,56.57
2022-12-19T07:19:59.104Z,63.30
2022-12-19T07:22:31.001Z,63.13
2022-12-19T07:24:59.903Z,69.67
2022-12-19T07:27:35.391Z,70.03
2022-12-19T07:30:06.375Z,72.20
2022-12-19T07:32:34.447Z,74.67
2022-12-19T07:35:03.837Z,67.23
2022-12-19T07:37:31.845Z,65.33
2022-12-19T07:39:59.926Z,58.30
2022-12-19T07:42:32.223Z,60.57
2022-12-19T07:45:01.387Z,63.03
2022-12-19T07:47:29.498Z,59.50
2022-12-19T07:49:57.513Z,54.97
2022-12-19T07:52:30.073Z,56.07
2022-12-19T07:54:58.108Z,53.93
2022-12-19T07:57:26.213Z,61.43
2022-12-19T07:59:54.244Z,55.43
2022-12-19T08:02:22.381Z,63.93
2022-12-19T08:04:50.965Z,54.90
2022-12-19T08:07:18.999Z,50.43
2022-12-19T08:09:48.486Z,51.60
2022-12-19T08:12:16.910Z,49.27
2022-12-19T08:14:44.953Z,47.97
2022-12-19T08:17:21.388Z,45.40
2022-12-19T08:19:49.705Z,44.90
2022-12-19T08:22:17.702Z,47.13
2022-12-19T08:24:45.685Z,49.80
2022-12-19T08:27:16.661Z,47.67
2022-12-19T08:29:44.710Z,46.50
2022-12-19T08:32:18.659Z,48.87
2022-12-19T08:34:49.096Z,50.20
2022-12-19T08:37:17.163Z,51.07
2022-12-19T08:39:45.299Z,50.67
2022-12-19T08:42:15.123Z,47.77
2022-12-19T08:44:43.131Z,49.07
2022-12-19T08:47:11.198Z,47.67
2022-12-19T08:49:39.192Z,54.20
2022-12-19T08:52:07.195Z,53.50
2022-12-19T08:54:35.381Z,51.93
2022-12-19T08:57:03.384Z,59.70
2022-12-19T08:59:32.812Z,60.03
2022-12-19T09:02:02.026Z,58.40
2022-12-19T09:06:01.674Z,55.63
2022-12-19T09:07:18.944Z,58.93
2022-12-19T09:09:47.127Z,53.80
2022-12-19T09:12:17.077Z,55.43
2022-12-19T09:14:49.261Z,57.07
2022-12-19T09:17:17.344Z,52.10
2022-12-19T09:19:48.482Z,51.17
2022-12-19T09:22:17.567Z,54.00
2022-12-19T09:24:45.701Z,51.67
2022-12-19T09:27:14.127Z,52.60
2022-12-19T09:29:43.012Z,53.77
2022-12-19T09:32:12.603Z,52.90
2022-12-19T09:34:40.647Z,54.97
2022-12-19T09:37:15.723Z,52.90
2022-12-19T09:39:49.184Z,52.20
2022-12-19T09:42:45.738Z,58.57
2022-12-19T09:45:31.740Z,53.43
2022-12-19T09:48:05.678Z,50.70
2022-12-19T09:50:46.552Z,52.03
2022-12-19T09:53:22.428Z,53.57
2022-12-19T09:55:53.578Z,51.20
2022-12-19T09:58:30.284Z,55.07
2022-12-19T10:01:01.966Z,52.10
2022-12-19T10:03:39.224Z,53.67
2022-12-19T10:07:12.834Z,53.30
2022-12-19T10:10:25.400Z,55.37
2022-12-19T10:12:45.226Z,56.63
2022-12-19T10:15:01.372Z,56.37
2022-12-19T10:17:38.268Z,56.40
2022-12-19T10:20:25.597Z,56.83
2022-12-19T10:23:08.307Z,56.53
2022-12-19T10:25:52.642Z,57.63
2022-12-19T10:28:35.711Z,54.50
2022-12-19T10:31:19.105Z,51.00
2022-12-19T10:33:56.953Z,54.27
2022-12-19T10:36:55.951Z,51.83
2022-12-19T10:39:24.920Z,56.13
2022-12-19T10:41:57.207Z,56.03
2022-12-19T10:44:29.428Z,56.23
2022-12-19T10:46:57.500Z,55.57
2022-12-19T10:49:27.958Z,57.00
2022-12-19T10:52:01.613Z,56.23
2022-12-19T10:54:40.918Z,55.10
2022-12-19T10:57:28.028Z,59.43
2022-12-19T10:59:58.073Z,50.70
2022-12-19T11:02:36.171Z,54.77
2022-12-19T11:05:07.204Z,54.00
2022-12-19T11:07:36.706Z,54.20
2022-12-19T11:11:03.239Z,52.20
2022-12-19T11:18:28.774Z,57.10
2022-12-19T11:23:37.980Z,57.30
2022-12-19T11:29:17.027Z,53.07
2022-12-19T11:30:08.450Z,51.83
2022-12-19T11:30:25.964Z,56.60
2022-12-19T11:30:37.987Z,56.63
2022-12-19T11:33:56.992Z,59.23
2022-12-19T11:36:35.923Z,63.57
2022-12-19T11:39:05.251Z,55.87
2022-12-19T11:41:41.242Z,62.27
2022-12-19T11:44:14.649Z,67.30
2022-12-19T11:46:48.025Z,71.30
2022-12-19T11:49:26.906Z,63.50
2022-12-19T11:52:02.098Z,62.87
2022-12-19T11:54:33.944Z,61.57
2022-12-19T11:57:03.450Z,56.73
2022-12-19T11:59:33.779Z,64.17
2022-12-19T12:02:14.307Z,61.57
2022-12-19T12:04:59.164Z,60.73
2022-12-19T12:09:00.258Z,65.93
2022-12-19T12:15:40.869Z,67.87
2022-12-19T12:24:37.868Z,68.57
2022-12-19T12:25:59.634Z,60.70
2022-12-19T12:31:10.657Z,66.90
2022-12-19T12:31:10.914Z,67.40
2022-12-19T12:31:26.379Z,70.17
2022-12-19T12:31:47.727Z,61.30
2022-12-19T12:35:41.443Z,63.43
2022-12-19T12:38:25.861Z,63.33
2022-12-19T12:40:59.520Z,60.73
2022-12-19T12:43:48.850Z,70.40
2022-12-19T12:46:21.255Z,65.73
2022-12-19T12:48:55.423Z,70.00
2022-12-19T12:51:25.897Z,69.40
2022-12-19T12:54:00.884Z,69.53
2022-12-19T12:56:29.045Z,66.30
2022-12-19T12:59:23.832Z,63.27
2022-12-19T13:01:54.458Z,69.60
2022-12-19T13:04:31.293Z,69.70
2022-12-19T13:07:13.746Z,69.70
2022-12-19T13:09:43.759Z,72.03
2022-12-19T13:12:42.978Z,69.93
2022-12-19T13:15:37.501Z,71.30
2022-12-19T13:18:34.772Z,68.60
2022-12-19T13:21:06.488Z,64.90
2022-12-19T13:23:49.179Z,66.63
2022-12-19T13:26:45.960Z,69.43
2022-12-19T13:29:33.390Z,65.47
2022-12-19T13:32:15.249Z,64.00
2022-12-19T13:35:00.655Z,69.97
2022-12-19T13:40:00.880Z,64.63
2022-12-19T13:40:35.204Z,69.17
2022-12-19T13:43:30.716Z,67.07
2022-12-19T13:46:00.815Z,66.77
2022-12-19T13:48:34.566Z,61.30
2022-12-19T13:51:06.959Z,62.77
2022-12-19T13:53:35.671Z,71.00
2022-12-19T13:56:06.282Z,70.87
2022-12-19T13:58:45.025Z,63.97
2022-12-19T14:01:20.101Z,65.47
2022-12-19T14:03:54.251Z,73.27
2022-12-19T14:06:25.168Z,89.17
2022-12-19T14:09:16.286Z,77.43
2022-12-19T14:13:39.889Z,72.73
2022-12-19T14:15:02.800Z,69.37
2022-12-19T14:17:40.177Z,70.33
2022-12-19T14:22:01.969Z,62.13
2022-12-19T14:23:07.853Z,62.80
2022-12-19T14:28:15.160Z,67.60
2022-12-19T14:28:38.980Z,67.40
2022-12-19T14:31:12.479Z,69.90
2022-12-19T14:34:04.260Z,70.37
2022-12-19T14:36:35.566Z,73.67
2022-12-19T14:39:22.476Z,71.20
2022-12-19T14:42:11.730Z,71.50
2022-12-19T14:52:36.193Z,77.63
2022-12-19T14:54:08.026Z,67.30
2022-12-19T14:54:11.024Z,70.33
2022-12-19T14:54:44.283Z,70.50
2022-12-19T14:59:02.921Z,73.57
2022-12-19T15:01:35.141Z,70.20
2022-12-19T15:04:52.466Z,72.73
2022-12-19T15:07:08.898Z,74.90
2022-12-19T15:11:09.507Z,75.63
2022-12-19T15:14:54.529Z,79.33
2022-12-19T15:15:59.827Z,82.33
2022-12-19T15:18:30.378Z,90.60
2022-12-19T15:21:00.264Z,82.33
2022-12-19T15:23:29.177Z,82.63
2022-12-19T15:26:04.544Z,81.23
2022-12-19T15:28:39.592Z,80.83
2022-12-19T15:31:18.328Z,81.27
2022-12-19T15:34:14.365Z,81.13
2022-12-19T15:36:34.338Z,84.33
2022-12-19T15:39:03.658Z,76.37
2022-12-19T15:41:33.188Z,82.93
2022-12-19T15:44:08.538Z,85.70
2022-12-19T15:46:38.837Z,79.63
2022-12-19T15:49:16.414Z,80.17
2022-12-19T15:51:44.489Z,79.83
2022-12-19T15:54:47.029Z,80.17
2022-12-19T15:57:01.901Z,84.13
2022-12-19T15:59:38.096Z,80.50
2022-12-19T16:02:17.530Z,78.53
2022-12-19T16:04:47.995Z,75.70
2022-12-19T16:07:18.299Z,80.43
2022-12-19T16:09:46.344Z,72.20
2022-12-19T16:12:17.769Z,79.30
2022-12-19T16:14:47.057Z,81.10
2022-12-19T16:17:22.191Z,83.47
2022-12-19T16:19:51.576Z,80.33
2022-12-19T16:22:22.307Z,92.33
2022-12-19T16:24:50.476Z,87.37
2022-12-19T16:27:24.493Z,93.47
2022-12-19T16:29:53.371Z,99.53
2022-12-19T16:32:23.913Z,106.73
2022-12-19T16:34:53.121Z,112.50
2022-12-19T16:37:22.774Z,109.37
2022-12-19T16:39:52.711Z,110.33
2022-12-19T16:42:22.226Z,107.20
2022-12-19T16:44:50.308Z,104.57
2022-12-19T16:47:19.300Z,110.37
2022-12-19T16:49:47.335Z,112.40
2022-12-19T16:52:15.390Z,107.27
2022-12-19T16:54:43.395Z,111.97
2022-12-19T16:57:19.782Z,97.23
2022-12-19T16:59:52.258Z,104.10
2022-12-19T17:02:40.456Z,101.73
2022-12-19T17:05:15.091Z,97.10
2022-12-19T17:07:43.098Z,99.90
2022-12-19T17:10:11.786Z,97.00
2022-12-19T17:12:41.505Z,103.87
2022-12-19T17:15:22.498Z,107.13
2022-12-19T17:17:51.451Z,108.07
2022-12-19T17:20:21.671Z,109.70
2022-12-19T17:22:50.761Z,110.40
2022-12-19T17:25:22.132Z,107.33
2022-12-19T17:27:50.577Z,107.70
2022-12-19T17:30:21.205Z,104.40
2022-12-19T17:32:54.758Z,107.10
2022-12-19T17:35:28.059Z,103.13
2022-12-19T17:37:58.479Z,104.17
2022-12-19T17:40:28.138Z,100.80
2022-12-19T17:42:57.342Z,101.67
2022-12-19T17:45:28.608Z,94.60
2022-12-19T17:48:02.775Z,101.70
2022-12-19T17:50:34.407Z,96.10
2022-12-19T17:53:02.485Z,97.23
2022-12-19T17:55:34.471Z,104.50
2022-12-19T17:58:02.571Z,100.93
2022-12-19T18:00:34.252Z,100.37
2022-12-19T18:03:05.803Z,103.87
2022-12-19T18:05:36.923Z,101.40
2022-12-19T18:08:05.463Z,104.90
2022-12-19T18:10:39.652Z,105.13
2022-12-19T18:13:07.739Z,102.53
2022-12-19T18:15:37.218Z,104.13
2022-12-19T18:18:05.568Z,107.83
2022-12-19T18:20:34.984Z,109.83
2022-12-19T18:23:03.643Z,107.07
2022-12-19T18:25:35.108Z,110.67
2022-12-19T18:28:03.558Z,108.37
2022-12-19T18:30:31.925Z,112.10
2022-12-19T18:33:03.459Z,116.13
2022-12-19T18:35:34.939Z,117.23
2022-12-19T18:38:08.471Z,118.43
2022-12-19T18:40:36.497Z,111.33
2022-12-19T18:43:04.919Z,116.70
2022-12-19T18:45:37.271Z,114.87
2022-12-19T18:48:12.405Z,108.50
2022-12-19T18:50:40.727Z,119.73
2022-12-19T18:53:13.018Z,138.17
2022-12-19T18:55:41.309Z,130.77
2022-12-19T18:58:11.630Z,126.03
2022-12-19T19:00:41.044Z,127.73
2022-12-19T19:03:16.066Z,121.73
2022-12-19T19:05:45.057Z,132.07
2022-12-19T19:08:17.915Z,127.23
2022-12-19T19:10:47.367Z,132.60
2022-12-19T19:13:17.752Z,142.73
2022-12-19T19:15:49.395Z,143.00
2022-12-19T19:18:22.847Z,137.13
2022-12-19T19:21:00.538Z,130.40
2022-12-19T19:23:36.133Z,121.60
2022-12-19T19:26:04.378Z,124.63
2022-12-19T19:28:32.870Z,114.07
2022-12-19T19:31:01.975Z,110.47
2022-12-19T19:33:34.365Z,116.60
2022-12-19T19:36:11.714Z,125.37
2022-12-19T19:38:43.234Z,127.93
2022-12-19T19:41:12.559Z,131.70
2022-12-19T19:43:41.270Z,133.57
2022-12-19T19:46:09.371Z,143.33
2022-12-19T19:48:41.257Z,144.03
2022-12-19T19:51:09.477Z,143.40
2022-12-19T19:53:37.611Z,143.23
2022-12-19T19:56:06.105Z,141.30
2022-12-19T19:58:36.155Z,145.57
2022-12-19T20:01:08.659Z,163.27
2022-12-19T20:03:38.275Z,152.97
2022-12-19T20:06:06.919Z,158.93
2022-12-19T20:08:39.818Z,134.73
2022-12-19T20:11:10.582Z,134.50
2022-12-19T20:13:39.632Z,129.57
2022-12-19T20:16:09.701Z,128.13
2022-12-19T20:18:40.349Z,124.80
2022-12-19T20:21:13.070Z,121.00
2022-12-19T20:23:43.534Z,120.63
2022-12-19T20:26:16.205Z,125.87
2022-12-19T20:28:48.889Z,131.97
2022-12-19T20:31:17.925Z,126.17
2022-12-19T20:33:48.317Z,126.80
2022-12-19T20:36:17.138Z,143.83
2022-12-19T20:38:45.696Z,148.43
2022-12-19T20:41:13.860Z,151.67
2022-12-19T20:43:42.590Z,141.40
2022-12-19T20:46:12.873Z,143.07
2022-12-19T20:48:41.728Z,138.97
2022-12-19T20:51:11.517Z,133.07
2022-12-19T20:53:41.518Z,129.70
2022-12-19T20:56:13.278Z,124.20
2022-12-19T20:58:41.356Z,124.23
2022-12-19T21:01:15.130Z,113.27
2022-12-19T21:03:44.098Z,128.40
2022-12-19T21:06:15.731Z,121.03
2022-12-19T21:08:44.836Z,122.37
2022-12-19T21:11:13.853Z,133.80
2022-12-19T21:13:42.109Z,140.47
2022-12-19T21:16:13.123Z,140.67
2022-12-19T21:18:42.855Z,146.60
2022-12-19T21:21:16.955Z,146.53
2022-12-19T21:23:45.889Z,149.33
2022-12-19T21:26:14.134Z,152.80
2022-12-19T21:28:42.760Z,169.30
2022-12-19T21:31:16.097Z,184.13
2022-12-19T21:33:45.192Z,192.60
2022-12-19T21:36:18.995Z,193.73
2022-12-19T21:38:47.943Z,193.40
2022-12-19T21:41:18.886Z,184.30
2022-12-19T21:43:48.665Z,189.43
2022-12-19T21:46:18.504Z,180.17
2022-12-19T21:48:48.841Z,188.60
2022-12-19T21:51:19.576Z,191.93
2022-12-19T21:53:49.636Z,179.07
2022-12-19T21:56:27.561Z,171.07
2022-12-19T21:58:57.714Z,164.83
2022-12-19T22:01:26.571Z,176.07
2022-12-19T22:03:58.727Z,169.50
2022-12-19T22:06:31.043Z,162.37
2022-12-19T22:09:00.245Z,152.63
2022-12-19T22:11:29.384Z,148.53
2022-12-19T22:13:59.132Z,133.47
2022-12-19T22:16:28.023Z,138.10
2022-12-19T22:18:56.546Z,153.10
2022-12-19T22:21:25.444Z,157.07
2022-12-19T22:23:58.194Z,154.53
2022-12-19T22:26:27.401Z,163.17
2022-12-19T22:28:57.336Z,161.70
2022-12-19T22:31:27.138Z,169.10
2022-12-19T22:33:56.980Z,168.50
2022-12-19T22:36:28.675Z,172.37
2022-12-19T22:38:59.839Z,172.53
2022-12-19T22:41:29.181Z,175.37
2022-12-19T22:43:57.365Z,177.47
2022-12-19T22:46:27.270Z,184.60
2022-12-19T22:48:58.274Z,186.73
2022-12-19T22:51:27.929Z,199.57
2022-12-19T22:53:56.543Z,191.67
2022-12-19T22:56:28.736Z,190.27
2022-12-19T22:59:01.739Z,190.43
2022-12-19T23:01:31.847Z,192.67
2022-12-19T23:04:01.514Z,201.10
2022-12-19T23:06:31.400Z,196.87
2022-12-19T23:08:59.426Z,187.17
2022-12-19T23:11:31.992Z,194.23
2022-12-19T23:14:00.103Z,179.40
2022-12-19T23:16:28.219Z,191.37
2022-12-19T23:18:56.271Z,184.93
2022-12-19T23:21:25.951Z,186.13
2022-12-19T23:23:55.770Z,182.00
2022-12-19T23:26:25.913Z,188.00
2022-12-19T23:28:56.934Z,182.67
2022-12-19T23:31:25.306Z,182.53
2022-12-19T23:33:53.753Z,188.93
2022-12-19T23:36:45.266Z,179.27
2022-12-19T23:39:11.490Z,173.60
2022-12-19T23:41:39.691Z,171.77
2022-12-19T23:44:09.632Z,175.97
2022-12-19T23:46:38.063Z,164.70
2022-12-19T23:49:06.156Z,158.83
2022-12-19T23:51:34.152Z,167.20
2022-12-19T23:54:02.191Z,156.77
2022-12-19T23:56:32.112Z,149.30
2022-12-19T23:59:00.486Z,170.83
